Portada
METAR-TAF:

METAR-TAF

Aeroports :

Pakse, Laos

latitud: 15-08-02N, longitud: 105-46-55E, altitud: 107 m

Observació

L'informe es va fer fa 24 minuts, a les 03:00 UTC
Vent 6 kt del Oest
Temperatura 31°C
Humitat 79%
Pressió 1011 hPa
Visibilitat 10 km o més
Núvols disperses a una alçada de 1300 ft
Núvols disperses a una alçada de 5000 ft

METAR: VLPS 220300Z 27006KT 9999 SCT013 SCT050 31/27 Q1011 NOSIG

Hora: 10:24 (03:24 UTC)

Pronòstic

L'informe es va fer fa 4 hores i 24 minuts, a les 23:00 UTC
Pronòstic vàlid del 22 a les 00 UTC al 22 a les 24 UTC
Vent 4 kt del Sud-Oest
Visibilitat 10 km o més
Núvols disperses a una alçada de 1700 ft
Núvols disperses a una alçada de 5000 ft

TAF: VLPS 212300Z 2200/2224 22004KT 9999 SCT017 SCT050

Observacions i pronòstics meteorològics de més de 4000 aeroports (METAR i TAF).

Les estacions disponibles són els punts grocs i vermells al mapa.

Posi el ratolí al punt desitjat per veure el nom de l'estació.

Feu clic per veure les observacions i els pronòstics meteorològics.

Per canviar el mapa: feu clic els botons verds amb una creu de color negre per apropar; al botó verd amb un guió per allunyar la imatge; o en les fletxes verdes per a mapes adjacents.


METAR-TAF: